sensor_id;sensor_type;location;lat;lon;timestamp;pressure;altitude;pressure_sealevel;temperature;humidity
57376;BME280;44805;45.048;5.062;2023-04-07T00:01:56;99880.28;;;8.94;51.13
57376;BME280;44805;45.048;5.062;2023-04-07T00:04:24;99873.81;;;8.98;51.44
57376;BME280;44805;45.048;5.062;2023-04-07T00:06:49;99874.56;;;8.79;53.01
57376;BME280;44805;45.048;5.062;2023-04-07T00:09:15;99881.66;;;8.88;52.43
57376;BME280;44805;45.048;5.062;2023-04-07T00:11:40;99868.38;;;8.90;53.60
57376;BME280;44805;45.048;5.062;2023-04-07T00:14:05;99871.25;;;8.77;52.83
57376;BME280;44805;45.048;5.062;2023-04-07T00:16:31;99875.69;;;8.86;52.94
57376;BME280;44805;45.048;5.062;2023-04-07T00:18:56;99873.88;;;8.77;52.95
57376;BME280;44805;45.048;5.062;2023-04-07T00:21:21;99864.34;;;8.76;53.40
57376;BME280;44805;45.048;5.062;2023-04-07T00:23:46;99867.06;;;8.65;54.48
57376;BME280;44805;45.048;5.062;2023-04-07T00:26:12;99860.47;;;8.71;53.97
57376;BME280;44805;45.048;5.062;2023-04-07T00:28:37;99853.53;;;8.69;54.58
57376;BME280;44805;45.048;5.062;2023-04-07T00:31:03;99848.53;;;8.57;54.13
57376;BME280;44805;45.048;5.062;2023-04-07T00:33:28;99843.66;;;8.52;55.02
57376;BME280;44805;45.048;5.062;2023-04-07T00:35:53;99840.13;;;8.32;55.76
57376;BME280;44805;45.048;5.062;2023-04-07T00:38:19;99841.22;;;8.30;56.13
57376;BME280;44805;45.048;5.062;2023-04-07T00:40:44;99841.94;;;8.11;56.59
57376;BME280;44805;45.048;5.062;2023-04-07T00:43:09;99835.03;;;8.10;55.37
57376;BME280;44805;45.048;5.062;2023-04-07T00:45:35;99825.50;;;8.09;55.18
57376;BME280;44805;45.048;5.062;2023-04-07T00:48:00;99834.78;;;8.13;54.74
57376;BME280;44805;45.048;5.062;2023-04-07T00:50:25;99833.13;;;8.12;54.95
57376;BME280;44805;45.048;5.062;2023-04-07T00:52:51;99828.66;;;8.02;55.10
57376;BME280;44805;45.048;5.062;2023-04-07T00:55:17;99837.38;;;7.82;56.21
57376;BME280;44805;45.048;5.062;2023-04-07T00:57:43;99837.00;;;7.87;55.40
57376;BME280;44805;45.048;5.062;2023-04-07T01:00:10;99849.31;;;7.75;56.34
57376;BME280;44805;45.048;5.062;2023-04-07T01:02:37;99834.28;;;7.77;56.54
57376;BME280;44805;45.048;5.062;2023-04-07T01:05:12;99831.53;;;7.99;55.40
57376;BME280;44805;45.048;5.062;2023-04-07T01:10:04;99838.19;;;7.82;55.82
57376;BME280;44805;45.048;5.062;2023-04-07T01:12:35;99832.56;;;7.87;56.53
57376;BME280;44805;45.048;5.062;2023-04-07T01:15:07;99830.00;;;7.97;56.71
57376;BME280;44805;45.048;5.062;2023-04-07T01:17:33;99828.03;;;7.89;56.68
57376;BME280;44805;45.048;5.062;2023-04-07T01:20:00;99829.06;;;7.77;57.77
57376;BME280;44805;45.048;5.062;2023-04-07T01:22:52;99826.75;;;7.63;57.59
57376;BME280;44805;45.048;5.062;2023-04-07T01:25:22;99823.47;;;7.70;57.75
57376;BME280;44805;45.048;5.062;2023-04-07T01:30:17;99821.00;;;7.69;58.57
57376;BME280;44805;45.048;5.062;2023-04-07T01:32:42;99817.59;;;7.57;58.39
57376;BME280;44805;45.048;5.062;2023-04-07T01:35:11;99815.38;;;7.52;59.21
57376;BME280;44805;45.048;5.062;2023-04-07T01:37:37;99835.69;;;7.39;59.77
57376;BME280;44805;45.048;5.062;2023-04-07T01:40:03;99821.78;;;7.27;60.11
57376;BME280;44805;45.048;5.062;2023-04-07T01:42:29;99821.59;;;7.40;60.22
57376;BME280;44805;45.048;5.062;2023-04-07T01:44:55;99816.97;;;7.44;59.12
57376;BME280;44805;45.048;5.062;2023-04-07T01:47:21;99816.06;;;7.54;59.44
57376;BME280;44805;45.048;5.062;2023-04-07T01:49:47;99816.06;;;7.54;58.75
57376;BME280;44805;45.048;5.062;2023-04-07T01:52:13;99811.81;;;7.53;59.42
57376;BME280;44805;45.048;5.062;2023-04-07T01:54:38;99817.34;;;7.60;58.79
57376;BME280;44805;45.048;5.062;2023-04-07T01:57:04;99815.63;;;7.49;58.67
57376;BME280;44805;45.048;5.062;2023-04-07T01:59:29;99815.50;;;7.51;58.06
57376;BME280;44805;45.048;5.062;2023-04-07T02:01:55;99815.53;;;7.39;58.35
57376;BME280;44805;45.048;5.062;2023-04-07T02:06:50;99813.25;;;7.46;58.73
57376;BME280;44805;45.048;5.062;2023-04-07T02:09:16;99815.63;;;7.49;58.60
57376;BME280;44805;45.048;5.062;2023-04-07T02:11:44;99815.97;;;7.56;58.10
57376;BME280;44805;45.048;5.062;2023-04-07T02:14:10;99813.63;;;7.63;58.48
57376;BME280;44805;45.048;5.062;2023-04-07T02:16:36;99811.81;;;7.53;58.17
57376;BME280;44805;45.048;5.062;2023-04-07T02:19:03;99809.22;;;7.42;58.17
57376;BME280;44805;45.048;5.062;2023-04-07T02:21:29;99816.16;;;7.43;57.97
57376;BME280;44805;45.048;5.062;2023-04-07T02:23:55;99815.47;;;7.30;58.62
57376;BME280;44805;45.048;5.062;2023-04-07T02:26:20;99808.00;;;7.25;58.29
57376;BME280;44805;45.048;5.062;2023-04-07T02:28:45;99801.09;;;7.24;58.75
57376;BME280;44805;45.048;5.062;2023-04-07T02:31:11;99801.69;;;7.28;59.55
57376;BME280;44805;45.048;5.062;2023-04-07T02:33:37;99812.28;;;7.26;59.69
57376;BME280;44805;45.048;5.062;2023-04-07T02:36:03;99805.63;;;7.22;59.54
57376;BME280;44805;45.048;5.062;2023-04-07T02:38:28;99812.81;;;7.09;59.62
57376;BME280;44805;45.048;5.062;2023-04-07T02:40:53;99806.19;;;7.05;60.01
57376;BME280;44805;45.048;5.062;2023-04-07T02:43:20;99798.44;;;7.03;60.89
57376;BME280;44805;45.048;5.062;2023-04-07T02:45:45;99795.28;;;6.88;61.25
57376;BME280;44805;45.048;5.062;2023-04-07T02:48:10;99797.56;;;6.70;61.80
57376;BME280;44805;45.048;5.062;2023-04-07T02:50:36;99790.59;;;6.48;62.42
57376;BME280;44805;45.048;5.062;2023-04-07T02:53:01;99781.06;;;6.59;62.45
57376;BME280;44805;45.048;5.062;2023-04-07T02:55:26;99783.59;;;6.49;63.09
57376;BME280;44805;45.048;5.062;2023-04-07T02:57:52;99771.94;;;6.42;63.37
57376;BME280;44805;45.048;5.062;2023-04-07T03:00:17;99766.97;;;6.39;63.41
57376;BME280;44805;45.048;5.062;2023-04-07T03:02:42;99754.69;;;6.50;63.49
57376;BME280;44805;45.048;5.062;2023-04-07T03:05:08;99754.94;;;6.47;63.20
57376;BME280;44805;45.048;5.062;2023-04-07T03:07:33;99753.63;;;6.30;64.00
57376;BME280;44805;45.048;5.062;2023-04-07T03:09:58;99752.47;;;6.35;63.26
57376;BME280;44805;45.048;5.062;2023-04-07T03:12:23;99750.69;;;6.13;64.18
57376;BME280;44805;45.048;5.062;2023-04-07T03:14:49;99736.06;;;6.10;64.04
57376;BME280;44805;45.048;5.062;2023-04-07T03:17:14;99741.78;;;6.26;64.03
57376;BME280;44805;45.048;5.062;2023-04-07T03:19:40;99742.03;;;6.12;64.07
57376;BME280;44805;45.048;5.062;2023-04-07T03:22:05;99755.78;;;6.03;64.89
57376;BME280;44805;45.048;5.062;2023-04-07T03:24:30;99758.19;;;6.06;64.58
57376;BME280;44805;45.048;5.062;2023-04-07T03:26:56;99761.50;;;5.97;64.57
57376;BME280;44805;45.048;5.062;2023-04-07T03:29:21;99752.66;;;5.64;65.75
57376;BME280;44805;45.048;5.062;2023-04-07T03:31:46;99753.41;;;5.88;65.49
57376;BME280;44805;45.048;5.062;2023-04-07T03:34:12;99756.41;;;6.06;64.70
57376;BME280;44805;45.048;5.062;2023-04-07T03:36:40;99749.97;;;5.88;64.89
57376;BME280;44805;45.048;5.062;2023-04-07T03:39:05;99746.97;;;5.93;64.80
57376;BME280;44805;45.048;5.062;2023-04-07T03:41:30;99748.78;;;6.15;64.54
57376;BME280;44805;45.048;5.062;2023-04-07T03:43:56;99744.88;;;5.98;64.81
57376;BME280;44805;45.048;5.062;2023-04-07T03:46:21;99746.91;;;5.94;64.41
57376;BME280;44805;45.048;5.062;2023-04-07T03:48:47;99740.59;;;6.19;64.56
57376;BME280;44805;45.048;5.062;2023-04-07T03:51:12;99744.50;;;6.02;64.75
57376;BME280;44805;45.048;5.062;2023-04-07T03:53:37;99738.47;;;6.02;64.88
57376;BME280;44805;45.048;5.062;2023-04-07T03:56:03;99738.19;;;6.27;64.32
57376;BME280;44805;45.048;5.062;2023-04-07T03:58:28;99737.94;;;6.30;63.80
57376;BME280;44805;45.048;5.062;2023-04-07T04:00:53;99742.97;;;6.34;64.00
57376;BME280;44805;45.048;5.062;2023-04-07T04:03:19;99739.16;;;6.26;63.87
57376;BME280;44805;45.048;5.062;2023-04-07T04:05:44;99732.66;;;6.21;64.58
57376;BME280;44805;45.048;5.062;2023-04-07T04:08:09;99731.22;;;6.17;64.53
57376;BME280;44805;45.048;5.062;2023-04-07T04:10:35;99743.19;;;6.08;65.15
57376;BME280;44805;45.048;5.062;2023-04-07T04:13:00;99732.75;;;6.08;65.31
57376;BME280;44805;45.048;5.062;2023-04-07T04:15:27;99731.19;;;6.05;65.19
57376;BME280;44805;45.048;5.062;2023-04-07T04:17:52;99736.44;;;5.94;65.87
57376;BME280;44805;45.048;5.062;2023-04-07T04:20:18;99744.19;;;5.96;65.76
57376;BME280;44805;45.048;5.062;2023-04-07T04:22:43;99746.75;;;5.84;66.60
57376;BME280;44805;45.048;5.062;2023-04-07T04:25:08;99755.88;;;5.90;65.75
57376;BME280;44805;45.048;5.062;2023-04-07T04:27:34;99751.72;;;5.87;66.14
57376;BME280;44805;45.048;5.062;2023-04-07T04:29:59;99755.88;;;5.79;66.50
57376;BME280;44805;45.048;5.062;2023-04-07T04:32:24;99756.03;;;6.00;66.52
57376;BME280;44805;45.048;5.062;2023-04-07T04:34:50;99748.91;;;6.02;66.20
57376;BME280;44805;45.048;5.062;2023-04-07T04:37:15;99745.09;;;5.95;66.22
57376;BME280;44805;45.048;5.062;2023-04-07T04:39:41;99743.47;;;5.94;66.09
57376;BME280;44805;45.048;5.062;2023-04-07T04:42:06;99742.94;;;5.88;66.54
57376;BME280;44805;45.048;5.062;2023-04-07T04:44:31;99735.69;;;5.81;67.31
57376;BME280;44805;45.048;5.062;2023-04-07T04:46:57;99739.13;;;5.93;67.89
57376;BME280;44805;45.048;5.062;2023-04-07T04:49:22;99735.84;;;5.91;67.45
57376;BME280;44805;45.048;5.062;2023-04-07T04:51:47;99741.88;;;5.91;67.36
57376;BME280;44805;45.048;5.062;2023-04-07T04:54:13;99746.25;;;5.79;67.25
57376;BME280;44805;45.048;5.062;2023-04-07T04:56:38;99749.00;;;5.78;67.27
57376;BME280;44805;45.048;5.062;2023-04-07T04:59:03;99740.91;;;5.58;67.67
57376;BME280;44805;45.048;5.062;2023-04-07T05:01:29;99746.59;;;5.63;67.91
57376;BME280;44805;45.048;5.062;2023-04-07T05:03:55;99739.97;;;5.82;67.74
57376;BME280;44805;45.048;5.062;2023-04-07T05:06:20;99733.91;;;5.81;67.90
57376;BME280;44805;45.048;5.062;2023-04-07T05:08:46;99739.50;;;5.77;68.21
57376;BME280;44805;45.048;5.062;2023-04-07T05:11:11;99734.13;;;5.67;68.37
57376;BME280;44805;45.048;5.062;2023-04-07T05:13:36;99736.06;;;5.65;68.02
57376;BME280;44805;45.048;5.062;2023-04-07T05:16:01;99734.72;;;5.48;69.24
57376;BME280;44805;45.048;5.062;2023-04-07T05:18:27;99729.75;;;5.68;68.06
57376;BME280;44805;45.048;5.062;2023-04-07T05:20:52;99669.75;;;5.21;67.44
57376;BME280;44805;45.048;5.062;2023-04-07T05:23:17;99736.75;;;5.56;68.13
57376;BME280;44805;45.048;5.062;2023-04-07T05:25:43;99734.13;;;5.56;68.25
57376;BME280;44805;45.048;5.062;2023-04-07T05:28:08;99741.25;;;5.54;68.72
57376;BME280;44805;45.048;5.062;2023-04-07T05:30:33;99741.44;;;5.28;68.65
57376;BME280;44805;45.048;5.062;2023-04-07T05:32:59;99738.13;;;5.37;69.82
57376;BME280;44805;45.048;5.062;2023-04-07T05:35:24;99747.75;;;5.37;69.43
57376;BME280;44805;45.048;5.062;2023-04-07T05:37:49;99744.56;;;5.44;69.58
57376;BME280;44805;45.048;5.062;2023-04-07T05:40:15;99744.09;;;5.51;70.20
57376;BME280;44805;45.048;5.062;2023-04-07T05:42:40;99760.44;;;5.41;69.45
57376;BME280;44805;45.048;5.062;2023-04-07T05:45:06;99768.75;;;5.47;70.20
57376;BME280;44805;45.048;5.062;2023-04-07T05:47:31;99769.25;;;5.52;69.76
57376;BME280;44805;45.048;5.062;2023-04-07T05:49:56;99768.31;;;5.53;70.02
57376;BME280;44805;45.048;5.062;2023-04-07T05:52:22;99761.56;;;5.61;70.03
57376;BME280;44805;45.048;5.062;2023-04-07T05:54:47;99764.09;;;5.85;68.73
57376;BME280;44805;45.048;5.062;2023-04-07T05:57:12;99763.88;;;6.00;68.48
57376;BME280;44805;45.048;5.062;2023-04-07T05:59:38;99762.81;;;6.14;67.83
57376;BME280;44805;45.048;5.062;2023-04-07T06:02:03;99758.53;;;6.24;67.64
57376;BME280;44805;45.048;5.062;2023-04-07T06:04:28;99761.38;;;6.32;67.36
57376;BME280;44805;45.048;5.062;2023-04-07T06:06:54;99766.84;;;6.29;67.02
57376;BME280;44805;45.048;5.062;2023-04-07T06:09:25;99762.66;;;6.49;67.17
57376;BME280;44805;45.048;5.062;2023-04-07T06:11:50;99752.72;;;6.75;66.53
57376;BME280;44805;45.048;5.062;2023-04-07T06:14:16;99759.63;;;6.76;66.01
57376;BME280;44805;45.048;5.062;2023-04-07T06:16:41;99764.75;;;6.78;65.05
57376;BME280;44805;45.048;5.062;2023-04-07T06:19:07;99774.44;;;6.87;64.58
57376;BME280;44805;45.048;5.062;2023-04-07T06:21:32;99767.31;;;6.89;65.37
57376;BME280;44805;45.048;5.062;2023-04-07T06:23:57;99775.16;;;6.89;65.01
57376;BME280;44805;45.048;5.062;2023-04-07T06:26:23;99766.50;;;7.09;64.47
57376;BME280;44805;45.048;5.062;2023-04-07T06:28:48;99774.66;;;7.27;64.17
57376;BME280;44805;45.048;5.062;2023-04-07T06:31:13;99781.13;;;7.44;62.71
57376;BME280;44805;45.048;5.062;2023-04-07T06:33:39;99792.41;;;7.45;62.79
57376;BME280;44805;45.048;5.062;2023-04-07T06:36:05;99800.47;;;7.53;63.33
57376;BME280;44805;45.048;5.062;2023-04-07T06:38:30;99808.34;;;7.53;62.22
57376;BME280;44805;45.048;5.062;2023-04-07T06:40:55;99807.94;;;7.57;63.16
57376;BME280;44805;45.048;5.062;2023-04-07T06:43:21;99814.09;;;7.68;62.06
57376;BME280;44805;45.048;5.062;2023-04-07T06:45:46;99812.19;;;7.70;62.52
57376;BME280;44805;45.048;5.062;2023-04-07T06:48:11;99818.09;;;7.93;62.04
57376;BME280;44805;45.048;5.062;2023-04-07T06:50:36;99821.09;;;8.09;61.98
57376;BME280;44805;45.048;5.062;2023-04-07T06:53:05;99812.16;;;8.12;62.14
57376;BME280;44805;45.048;5.062;2023-04-07T06:55:30;99811.72;;;8.37;62.04
57376;BME280;44805;45.048;5.062;2023-04-07T06:57:56;99817.31;;;8.54;60.87
57376;BME280;44805;45.048;5.062;2023-04-07T07:00:21;99807.66;;;8.64;62.22
57376;BME280;44805;45.048;5.062;2023-04-07T07:02:51;99809.72;;;8.70;61.86
57376;BME280;44805;45.048;5.062;2023-04-07T07:05:16;99811.03;;;8.85;61.83
57376;BME280;44805;45.048;5.062;2023-04-07T07:07:41;99817.78;;;8.78;61.17
57376;BME280;44805;45.048;5.062;2023-04-07T07:10:09;99838.28;;;8.54;63.15
57376;BME280;44805;45.048;5.062;2023-04-07T07:12:35;99845.66;;;8.69;61.53
57376;BME280;44805;45.048;5.062;2023-04-07T07:15:00;99846.63;;;8.68;61.81
57376;BME280;44805;45.048;5.062;2023-04-07T07:17:26;99851.13;;;8.97;61.18
57376;BME280;44805;45.048;5.062;2023-04-07T07:19:51;99849.75;;;9.03;60.03
57376;BME280;44805;45.048;5.062;2023-04-07T07:22:16;99834.56;;;9.26;60.24
57376;BME280;44805;45.048;5.062;2023-04-07T07:24:42;99841.91;;;9.32;59.54
57376;BME280;44805;45.048;5.062;2023-04-07T07:27:07;99830.00;;;9.38;59.72
57376;BME280;44805;45.048;5.062;2023-04-07T07:29:32;99835.69;;;9.43;59.53
57376;BME280;44805;45.048;5.062;2023-04-07T07:31:57;99835.38;;;9.46;58.61
57376;BME280;44805;45.048;5.062;2023-04-07T07:34:23;99838.84;;;9.66;59.18
57376;BME280;44805;45.048;5.062;2023-04-07T07:36:48;99837.59;;;9.60;58.31
57376;BME280;44805;45.048;5.062;2023-04-07T07:39:13;99840.88;;;9.82;57.29
57376;BME280;44805;45.048;5.062;2023-04-07T07:41:39;99844.22;;;9.84;56.33
57376;BME280;44805;45.048;5.062;2023-04-07T07:44:05;99853.09;;;9.83;55.10
57376;BME280;44805;45.048;5.062;2023-04-07T07:46:31;99850.56;;;9.91;54.62
57376;BME280;44805;45.048;5.062;2023-04-07T07:48:56;99847.94;;;10.00;55.34
57376;BME280;44805;45.048;5.062;2023-04-07T07:51:21;99840.06;;;9.91;54.46
57376;BME280;44805;45.048;5.062;2023-04-07T07:53:47;99840.88;;;9.91;56.35
57376;BME280;44805;45.048;5.062;2023-04-07T07:56:12;99840.28;;;10.07;56.08
57376;BME280;44805;45.048;5.062;2023-04-07T07:58:37;99845.69;;;10.06;56.43
57376;BME280;44805;45.048;5.062;2023-04-07T08:01:02;99854.19;;;9.90;56.96
57376;BME280;44805;45.048;5.062;2023-04-07T08:03:28;99859.03;;;9.75;57.50
57376;BME280;44805;45.048;5.062;2023-04-07T08:05:53;99861.97;;;9.72;59.98
57376;BME280;44805;45.048;5.062;2023-04-07T08:08:18;99859.34;;;9.62;62.38
57376;BME280;44805;45.048;5.062;2023-04-07T08:10:44;99868.44;;;9.77;62.17
57376;BME280;44805;45.048;5.062;2023-04-07T08:13:09;99863.59;;;9.83;61.12
57376;BME280;44805;45.048;5.062;2023-04-07T08:15:34;99864.94;;;10.06;62.61
57376;BME280;44805;45.048;5.062;2023-04-07T08:18:00;99875.75;;;10.03;63.05
57376;BME280;44805;45.048;5.062;2023-04-07T08:20:28;99857.44;;;10.11;61.95
57376;BME280;44805;45.048;5.062;2023-04-07T08:22:53;99861.03;;;10.30;60.02
57376;BME280;44805;45.048;5.062;2023-04-07T08:25:19;99852.38;;;10.47;58.80
57376;BME280;44805;45.048;5.062;2023-04-07T08:27:45;99860.41;;;10.73;57.36
57376;BME280;44805;45.048;5.062;2023-04-07T08:30:10;99850.19;;;11.16;56.30
57376;BME280;44805;45.048;5.062;2023-04-07T08:32:36;99845.69;;;11.44;54.73
57376;BME280;44805;45.048;5.062;2023-04-07T08:35:01;99853.19;;;11.57;53.85
57376;BME280;44805;45.048;5.062;2023-04-07T08:37:27;99862.69;;;11.67;53.63
57376;BME280;44805;45.048;5.062;2023-04-07T08:39:53;99863.03;;;11.90;52.13
57376;BME280;44805;45.048;5.062;2023-04-07T08:42:22;99870.94;;;12.34;51.24
57376;BME280;44805;45.048;5.062;2023-04-07T08:44:51;99872.88;;;12.67;51.16
57376;BME280;44805;45.048;5.062;2023-04-07T08:47:17;99872.09;;;12.74;50.80
57376;BME280;44805;45.048;5.062;2023-04-07T08:49:44;99871.09;;;12.67;50.19
57376;BME280;44805;45.048;5.062;2023-04-07T08:52:13;99877.91;;;12.78;49.32
57376;BME280;44805;45.048;5.062;2023-04-07T08:54:40;99871.34;;;12.48;49.39
57376;BME280;44805;45.048;5.062;2023-04-07T08:57:06;99877.19;;;12.33;48.82
57376;BME280;44805;45.048;5.062;2023-04-07T08:59:32;99876.75;;;12.46;48.32
57376;BME280;44805;45.048;5.062;2023-04-07T09:01:58;99874.03;;;12.30;49.67
57376;BME280;44805;45.048;5.062;2023-04-07T09:04:23;99881.84;;;12.40;50.57
57376;BME280;44805;45.048;5.062;2023-04-07T09:06:49;99871.66;;;12.45;50.93
57376;BME280;44805;45.048;5.062;2023-04-07T09:09:15;99882.53;;;12.42;51.01
57376;BME280;44805;45.048;5.062;2023-04-07T09:11:40;99887.19;;;12.48;51.07
57376;BME280;44805;45.048;5.062;2023-04-07T09:14:05;99880.28;;;12.55;51.70
57376;BME280;44805;45.048;5.062;2023-04-07T09:16:31;99880.63;;;12.60;52.08
57376;BME280;44805;45.048;5.062;2023-04-07T09:18:57;99872.72;;;12.60;52.73
57376;BME280;44805;45.048;5.062;2023-04-07T09:21:22;99883.38;;;12.50;52.57
57376;BME280;44805;45.048;5.062;2023-04-07T09:23:48;99881.41;;;12.44;52.70
57376;BME280;44805;45.048;5.062;2023-04-07T09:28:42;99877.16;;;13.02;52.60
57376;BME280;44805;45.048;5.062;2023-04-07T09:31:07;99871.38;;;13.07;51.70
57376;BME280;44805;45.048;5.062;2023-04-07T09:33:32;99870.00;;;13.45;50.74
57376;BME280;44805;45.048;5.062;2023-04-07T09:35:58;99872.34;;;13.64;49.27
57376;BME280;44805;45.048;5.062;2023-04-07T09:38:23;99876.28;;;13.68;50.16
57376;BME280;44805;45.048;5.062;2023-04-07T09:41:04;99874.97;;;13.81;49.68
57376;BME280;44805;45.048;5.062;2023-04-07T09:43:29;99873.63;;;13.68;49.88
57376;BME280;44805;45.048;5.062;2023-04-07T09:46:05;99859.09;;;13.73;48.96
57376;BME280;44805;45.048;5.062;2023-04-07T09:48:31;99865.38;;;13.47;49.81
57376;BME280;44805;45.048;5.062;2023-04-07T09:51:04;99861.75;;;13.56;50.63
57376;BME280;44805;45.048;5.062;2023-04-07T09:53:40;99852.16;;;13.63;50.91
57376;BME280;44805;45.048;5.062;2023-04-07T09:56:05;99851.31;;;13.96;50.68
57376;BME280;44805;45.048;5.062;2023-04-07T09:58:31;99848.97;;;14.09;48.74
57376;BME280;44805;45.048;5.062;2023-04-07T10:00:56;99852.03;;;14.45;48.81
57376;BME280;44805;45.048;5.062;2023-04-07T10:03:22;99849.53;;;14.44;49.03
57376;BME280;44805;45.048;5.062;2023-04-07T10:05:48;99840.69;;;14.68;49.67
57376;BME280;44805;45.048;5.062;2023-04-07T10:08:13;99839.22;;;15.28;48.49
57376;BME280;44805;45.048;5.062;2023-04-07T10:10:40;99829.13;;;15.69;47.36
57376;BME280;44805;45.048;5.062;2023-04-07T10:13:05;99824.22;;;15.58;46.05
57376;BME280;44805;45.048;5.062;2023-04-07T10:15:31;99821.03;;;16.15;45.00
57376;BME280;44805;45.048;5.062;2023-04-07T10:17:56;99828.47;;;16.35;45.17
57376;BME280;44805;45.048;5.062;2023-04-07T10:20:22;99821.47;;;16.63;44.22
57376;BME280;44805;45.048;5.062;2023-04-07T10:22:48;99817.09;;;16.41;43.88
57376;BME280;44805;45.048;5.062;2023-04-07T10:25:15;99820.47;;;16.05;44.69
57376;BME280;44805;45.048;5.062;2023-04-07T10:27:44;99821.22;;;16.14;45.61
57376;BME280;44805;45.048;5.062;2023-04-07T10:30:16;99817.97;;;15.51;46.90
57376;BME280;44805;45.048;5.062;2023-04-07T10:32:46;99810.53;;;15.46;47.39
57376;BME280;44805;45.048;5.062;2023-04-07T10:35:11;99809.31;;;15.95;46.78
57376;BME280;44805;45.048;5.062;2023-04-07T10:37:37;99806.66;;;15.95;45.75
57376;BME280;44805;45.048;5.062;2023-04-07T10:42:43;99790.91;;;16.89;44.50
57376;BME280;44805;45.048;5.062;2023-04-07T10:45:09;99785.16;;;16.85;43.56
57376;BME280;44805;45.048;5.062;2023-04-07T10:47:43;99778.63;;;17.09;42.89
57376;BME280;44805;45.048;5.062;2023-04-07T10:50:20;99778.22;;;16.55;43.51
57376;BME280;44805;45.048;5.062;2023-04-07T10:52:47;99787.41;;;16.08;44.45
57376;BME280;44805;45.048;5.062;2023-04-07T10:58:16;99780.44;;;15.16;47.05
57376;BME280;44805;45.048;5.062;2023-04-07T11:00:43;99776.06;;;14.77;48.12
57376;BME280;44805;45.048;5.062;2023-04-07T11:03:28;99779.44;;;14.63;48.47
57376;BME280;44805;45.048;5.062;2023-04-07T11:06:12;99776.84;;;14.54;48.44
57376;BME280;44805;45.048;5.062;2023-04-07T11:08:38;99778.63;;;15.16;47.96
57376;BME280;44805;45.048;5.062;2023-04-07T11:11:04;99776.53;;;15.73;46.91
57376;BME280;44805;45.048;5.062;2023-04-07T11:16:04;99767.47;;;15.97;45.28
57376;BME280;44805;45.048;5.062;2023-04-07T11:18:30;99769.59;;;15.63;46.89
57376;BME280;44805;45.048;5.062;2023-04-07T11:20:56;99772.06;;;15.27;48.28
57376;BME280;44805;45.048;5.062;2023-04-07T11:23:23;99765.66;;;14.98;48.41
57376;BME280;44805;45.048;5.062;2023-04-07T11:25:50;99764.78;;;14.75;48.76
57376;BME280;44805;45.048;5.062;2023-04-07T11:28:15;99765.75;;;14.82;48.20
57376;BME280;44805;45.048;5.062;2023-04-07T11:30:45;99755.88;;;15.60;47.79
57376;BME280;44805;45.048;5.062;2023-04-07T11:33:18;99750.69;;;15.81;45.49
57376;BME280;44805;45.048;5.062;2023-04-07T11:36:01;99739.66;;;15.93;44.63
57376;BME280;44805;45.048;5.062;2023-04-07T11:38:27;99745.84;;;15.70;45.17
57376;BME280;44805;45.048;5.062;2023-04-07T11:40:53;99741.75;;;15.82;43.85
57376;BME280;44805;45.048;5.062;2023-04-07T11:45:45;99733.09;;;16.40;41.86
57376;BME280;44805;45.048;5.062;2023-04-07T11:48:29;99725.19;;;16.46;42.73
57376;BME280;44805;45.048;5.062;2023-04-07T11:50:55;99731.22;;;16.55;42.14
57376;BME280;44805;45.048;5.062;2023-04-07T11:56:08;99743.84;;;16.02;42.42
57376;BME280;44805;45.048;5.062;2023-04-07T11:58:37;99734.59;;;15.83;42.71
57376;BME280;44805;45.048;5.062;2023-04-07T12:01:04;99742.47;;;15.91;44.03
57376;BME280;44805;45.048;5.062;2023-04-07T12:03:33;99744.84;;;15.71;43.18
57376;BME280;44805;45.048;5.062;2023-04-07T12:05:59;99741.28;;;15.94;41.94
57376;BME280;44805;45.048;5.062;2023-04-07T12:08:41;99731.09;;;16.27;39.79
57376;BME280;44805;45.048;5.062;2023-04-07T12:11:06;99735.28;;;16.73;37.10
57376;BME280;44805;45.048;5.062;2023-04-07T12:13:33;99733.06;;;16.76;36.94
57376;BME280;44805;45.048;5.062;2023-04-07T12:15:58;99738.44;;;16.61;38.42
57376;BME280;44805;45.048;5.062;2023-04-07T12:18:24;99736.25;;;16.50;36.90
57376;BME280;44805;45.048;5.062;2023-04-07T12:20:50;99735.59;;;16.12;32.68
57376;BME280;44805;45.048;5.062;2023-04-07T12:23:15;99728.16;;;16.07;32.60
57376;BME280;44805;45.048;5.062;2023-04-07T12:25:40;99728.97;;;16.22;33.11
57376;BME280;44805;45.048;5.062;2023-04-07T12:28:06;99724.00;;;15.98;33.39
57376;BME280;44805;45.048;5.062;2023-04-07T12:30:31;99732.84;;;16.20;33.04
57376;BME280;44805;45.048;5.062;2023-04-07T12:32:57;99728.78;;;16.39;32.66
57376;BME280;44805;45.048;5.062;2023-04-07T12:35:22;99720.84;;;16.24;30.46
57376;BME280;44805;45.048;5.062;2023-04-07T12:37:47;99714.97;;;16.28;30.15
57376;BME280;44805;45.048;5.062;2023-04-07T12:40:13;99704.44;;;16.93;30.13
57376;BME280;44805;45.048;5.062;2023-04-07T12:42:39;99704.75;;;16.83;30.35
57376;BME280;44805;45.048;5.062;2023-04-07T12:45:05;99708.06;;;16.70;31.42
57376;BME280;44805;45.048;5.062;2023-04-07T12:47:30;99715.44;;;16.17;33.03
57376;BME280;44805;45.048;5.062;2023-04-07T12:49:56;99722.22;;;16.05;31.88
57376;BME280;44805;45.048;5.062;2023-04-07T12:52:21;99725.25;;;16.02;31.52
57376;BME280;44805;45.048;5.062;2023-04-07T12:54:47;99709.59;;;16.07;31.05
57376;BME280;44805;45.048;5.062;2023-04-07T12:57:12;99709.03;;;16.12;30.81
57376;BME280;44805;45.048;5.062;2023-04-07T12:59:38;99699.97;;;16.21;31.15
57376;BME280;44805;45.048;5.062;2023-04-07T13:02:03;99705.72;;;16.24;30.31
57376;BME280;44805;45.048;5.062;2023-04-07T13:04:28;99698.53;;;16.40;31.09
57376;BME280;44805;45.048;5.062;2023-04-07T13:06:55;99709.31;;;16.53;30.67
57376;BME280;44805;45.048;5.062;2023-04-07T13:09:20;99706.69;;;16.38;29.30
57376;BME280;44805;45.048;5.062;2023-04-07T13:11:47;99687.91;;;16.40;30.75
57376;BME280;44805;45.048;5.062;2023-04-07T13:14:13;99678.44;;;16.74;29.97
57376;BME280;44805;45.048;5.062;2023-04-07T13:16:38;99692.25;;;16.62;29.87
57376;BME280;44805;45.048;5.062;2023-04-07T13:19:03;99685.34;;;16.68;29.67
57376;BME280;44805;45.048;5.062;2023-04-07T13:21:32;99683.47;;;16.83;29.69
57376;BME280;44805;45.048;5.062;2023-04-07T13:23:57;99670.75;;;16.79;29.45
57376;BME280;44805;45.048;5.062;2023-04-07T13:26:22;99667.34;;;16.85;30.14